Time;durP1;ratioP1;P1;durP2;ratioP2;P2;SDS_P1;SDS_P2;PMS_P1;PMS_P2;Temp;Humidity;BMP_temperature;BMP_pressure;BME280_temperature;BME280_humidity;BME280_pressure;Samples;Min_cycle;Max_cycle;Signal;HPM_P1;HPM_P2
2021/05/03 00:01:14;;;;;;;5.07;2.90;;;6.20;88.70;;;;;;5133941;27;20074;-83
2021/05/03 00:03:40;;;;;;;5.65;2.85;;;6.20;88.30;;;;;;5132851;27;20047;-83
2021/05/03 00:06:06;;;;;;;6.10;3.17;;;6.20;88.00;;;;;;5133627;27;20051;-83
2021/05/03 00:08:32;;;;;;;4.97;2.78;;;6.20;88.10;;;;;;5133669;27;20053;-82
2021/05/03 00:10:58;;;;;;;7.53;2.85;;;6.20;87.90;;;;;;5133472;27;20406;-84
2021/05/03 00:13:25;;;;;;;6.30;3.10;;;6.20;88.10;;;;;;5134079;27;20051;-84
2021/05/03 00:15:52;;;;;;;6.03;2.85;;;6.10;87.90;;;;;;5132918;27;20401;-84
2021/05/03 00:18:18;;;;;;;4.65;2.83;;;6.20;88.20;;;;;;5133260;27;20504;-82
2021/05/03 00:20:45;;;;;;;4.72;2.90;;;6.10;88.10;;;;;;5125743;27;20403;-82
2021/05/03 00:23:11;;;;;;;5.93;2.63;;;6.10;88.50;;;;;;5112794;28;20047;-82
2021/05/03 00:25:37;;;;;;;4.80;2.45;;;6.10;88.30;;;;;;5112870;27;20085;-83
2021/05/03 00:28:03;;;;;;;5.75;2.83;;;6.10;87.90;;;;;;5113250;28;20414;-83
2021/05/03 00:30:29;;;;;;;4.75;2.72;;;6.00;87.60;;;;;;5113522;27;20078;-83
2021/05/03 00:32:54;;;;;;;4.57;2.60;;;6.00;87.40;;;;;;5133594;27;20054;-83
2021/05/03 00:35:20;;;;;;;4.38;2.58;;;6.00;87.50;;;;;;5133875;27;20092;-82
2021/05/03 00:37:46;;;;;;;4.55;2.58;;;6.00;87.70;;;;;;5115120;27;20138;-82
2021/05/03 00:40:12;;;;;;;7.93;3.30;;;6.00;87.80;;;;;;5113297;28;20040;-83
2021/05/03 00:42:37;;;;;;;5.35;2.83;;;5.90;87.80;;;;;;5112793;28;20140;-83
2021/05/03 00:45:09;;;;;;;4.97;2.70;;;5.90;87.80;;;;;;5126454;27;20470;-83
2021/05/03 00:47:36;;;;;;;4.53;2.63;;;5.90;87.80;;;;;;5130967;27;20054;-83
2021/05/03 00:50:05;;;;;;;4.07;2.30;;;5.90;87.60;;;;;;5112970;28;20376;-83
2021/05/03 00:52:32;;;;;;;5.70;3.25;;;5.90;87.40;;;;;;5111963;28;20051;-83
2021/05/03 00:54:57;;;;;;;5.07;3.03;;;5.90;87.70;;;;;;5112969;28;20070;-83
2021/05/03 00:57:23;;;;;;;4.78;2.60;;;5.90;87.90;;;;;;5125009;28;20502;-84
2021/05/03 00:59:49;;;;;;;5.32;2.80;;;5.80;87.50;;;;;;5122787;27;20126;-84
2021/05/03 01:02:15;;;;;;;4.32;2.83;;;5.80;87.80;;;;;;5129569;27;20051;-84
2021/05/03 01:04:41;;;;;;;6.55;2.72;;;5.80;87.80;;;;;;5132443;28;20050;-84
2021/05/03 01:07:07;;;;;;;4.78;2.70;;;5.80;87.80;;;;;;5125943;27;20039;-84
2021/05/03 01:09:34;;;;;;;5.90;2.70;;;5.80;87.70;;;;;;5133242;27;20047;-84
2021/05/03 01:12:00;;;;;;;4.85;3.00;;;5.80;87.80;;;;;;5132762;27;20055;-84
2021/05/03 01:14:26;;;;;;;6.00;2.70;;;5.80;88.00;;;;;;5132805;27;20130;-83
2021/05/03 01:16:52;;;;;;;4.13;2.35;;;5.80;87.90;;;;;;5133222;28;20126;-84
2021/05/03 01:19:21;;;;;;;4.18;2.47;;;5.70;87.50;;;;;;5118117;27;20422;-84
2021/05/03 01:21:51;;;;;;;5.10;2.53;;;5.80;87.70;;;;;;5116422;28;20517;-84
2021/05/03 01:24:18;;;;;;;6.40;2.92;;;5.80;88.00;;;;;;5116695;28;20509;-84
2021/05/03 01:26:45;;;;;;;5.68;2.95;;;5.70;87.90;;;;;;5131908;27;20039;-83
2021/05/03 01:29:12;;;;;;;5.20;2.58;;;5.70;87.90;;;;;;5137354;27;20047;-84
2021/05/03 01:31:38;;;;;;;4.45;2.15;;;5.80;88.00;;;;;;5137032;27;20050;-84
2021/05/03 01:34:09;;;;;;;6.20;2.30;;;5.80;88.00;;;;;;5136410;27;20043;-83
2021/05/03 01:36:38;;;;;;;4.38;2.53;;;5.80;87.70;;;;;;5136904;27;20550;-84
2021/05/03 01:39:09;;;;;;;4.72;2.47;;;5.80;87.60;;;;;;5137058;27;20104;-84
2021/05/03 01:41:35;;;;;;;5.57;2.90;;;5.80;87.70;;;;;;5135889;27;20039;-82
2021/05/03 01:44:07;;;;;;;4.57;2.28;;;5.80;87.90;;;;;;5122447;27;20052;-84
2021/05/03 01:46:34;;;;;;;4.80;2.45;;;5.80;87.80;;;;;;5115721;28;20380;-84
2021/05/03 01:49:02;;;;;;;5.47;2.30;;;5.80;87.70;;;;;;5115837;28;20151;-83
2021/05/03 01:51:29;;;;;;;4.38;2.42;;;5.80;87.70;;;;;;5116139;28;20058;-84
2021/05/03 01:53:55;;;;;;;4.95;2.50;;;5.80;87.60;;;;;;5116025;28;20074;-84
2021/05/03 01:56:24;;;;;;;3.70;2.08;;;5.80;87.90;;;;;;5115445;27;20062;-83
2021/05/03 01:58:49;;;;;;;4.03;2.03;;;5.80;88.10;;;;;;5116650;27;20130;-83
2021/05/03 02:01:15;;;;;;;3.67;2.22;;;5.80;87.80;;;;;;5115236;28;20120;-83
2021/05/03 02:03:41;;;;;;;5.75;2.33;;;5.80;87.70;;;;;;5115538;28;20048;-84
2021/05/03 02:06:07;;;;;;;3.97;2.25;;;5.80;87.40;;;;;;5117360;27;20134;-84
2021/05/03 02:08:32;;;;;;;3.50;2.10;;;5.80;87.10;;;;;;5114868;28;20561;-84
2021/05/03 02:10:59;;;;;;;3.70;2.17;;;5.80;87.10;;;;;;5116257;28;20052;-84
2021/05/03 02:13:26;;;;;;;5.25;2.40;;;5.80;86.90;;;;;;5115975;27;20046;-84
2021/05/03 02:15:52;;;;;;;4.72;2.15;;;5.80;86.70;;;;;;5114983;28;20047;-83
2021/05/03 02:18:18;;;;;;;5.10;2.30;;;5.80;86.90;;;;;;5115948;28;20046;-84
2021/05/03 02:20:45;;;;;;;5.55;2.40;;;5.80;87.20;;;;;;5115130;28;20047;-84
2021/05/03 02:23:11;;;;;;;3.63;2.00;;;5.70;87.10;;;;;;5114811;28;20380;-84
2021/05/03 02:25:37;;;;;;;4.45;2.50;;;5.80;86.90;;;;;;5115452;28;20051;-83
2021/05/03 02:28:03;;;;;;;4.22;2.30;;;5.70;87.00;;;;;;5115749;28;20063;-84
2021/05/03 02:30:29;;;;;;;4.13;2.30;;;5.80;87.20;;;;;;5114132;28;20059;-83
2021/05/03 02:32:55;;;;;;;3.90;2.25;;;5.80;87.20;;;;;;5115611;28;20075;-83
2021/05/03 02:35:24;;;;;;;4.63;2.13;;;5.80;87.10;;;;;;5115615;28;20043;-83
2021/05/03 02:38:00;;;;;;;6.63;2.60;;;5.80;87.50;;;;;;5114373;28;20063;-84
2021/05/03 02:40:27;;;;;;;3.70;2.20;;;5.80;87.20;;;;;;5115276;28;20043;-84
2021/05/03 02:42:56;;;;;;;5.72;2.40;;;5.80;87.30;;;;;;5122174;27;20058;-84
2021/05/03 02:45:22;;;;;;;3.75;2.15;;;5.80;87.60;;;;;;5135054;27;20039;-84
2021/05/03 02:47:48;;;;;;;3.60;2.00;;;5.80;87.60;;;;;;5135671;27;20051;-83
2021/05/03 02:50:15;;;;;;;4.53;2.25;;;5.80;87.40;;;;;;5135689;27;20120;-83
2021/05/03 02:52:42;;;;;;;4.15;2.20;;;5.90;87.30;;;;;;5134826;27;20153;-83
2021/05/03 02:55:10;;;;;;;3.97;2.10;;;5.90;87.20;;;;;;5135997;27;20057;-83
2021/05/03 02:57:40;;;;;;;4.07;1.95;;;5.90;87.10;;;;;;5134320;27;20047;-83
2021/05/03 03:00:07;;;;;;;4.32;2.40;;;5.90;86.90;;;;;;5135835;27;20135;-83
2021/05/03 03:02:33;;;;;;;5.10;2.20;;;5.90;87.00;;;;;;5122083;27;20556;-83
2021/05/03 03:04:59;;;;;;;4.07;1.90;;;5.90;87.30;;;;;;5113874;28;20048;-83
2021/05/03 03:07:25;;;;;;;3.83;2.00;;;6.00;87.30;;;;;;5115138;28;20044;-83
2021/05/03 03:09:50;;;;;;;4.70;2.05;;;5.90;87.40;;;;;;5115012;28;20062;-83
2021/05/03 03:12:17;;;;;;;4.05;2.08;;;6.00;87.60;;;;;;5113962;28;20103;-83
2021/05/03 03:14:43;;;;;;;3.88;2.00;;;6.00;87.70;;;;;;5114342;28;20225;-83
2021/05/03 03:17:09;;;;;;;4.28;2.10;;;6.00;87.40;;;;;;5114566;28;20069;-82
2021/05/03 03:19:41;;;;;;;5.10;2.15;;;6.00;87.40;;;;;;5113544;28;20134;-83
2021/05/03 03:22:08;;;;;;;5.00;2.33;;;6.10;87.40;;;;;;5114664;28;20043;-83
2021/05/03 03:24:35;;;;;;;5.57;2.22;;;6.00;87.20;;;;;;5115017;27;20056;-83
2021/05/03 03:27:01;;;;;;;4.80;2.20;;;6.10;87.40;;;;;;5113853;28;20048;-83
2021/05/03 03:29:27;;;;;;;3.60;2.00;;;6.10;87.30;;;;;;5114015;28;20051;-83
2021/05/03 03:31:52;;;;;;;3.92;2.10;;;6.10;87.00;;;;;;5114311;28;20542;-83
2021/05/03 03:34:18;;;;;;;4.57;2.20;;;6.10;87.00;;;;;;5113845;28;20127;-83
2021/05/03 03:36:44;;;;;;;3.55;2.25;;;6.10;87.10;;;;;;5119276;27;20100;-83
2021/05/03 03:39:10;;;;;;;4.35;2.10;;;6.10;87.00;;;;;;5135072;27;20156;-83
2021/05/03 03:41:36;;;;;;;4.00;2.30;;;6.10;87.30;;;;;;5132791;27;20188;-83
2021/05/03 03:44:03;;;;;;;3.53;2.03;;;6.10;87.10;;;;;;5134647;27;20465;-83
2021/05/03 03:46:29;;;;;;;3.67;2.22;;;6.10;87.10;;;;;;5133636;27;20047;-83
2021/05/03 03:48:54;;;;;;;3.90;2.35;;;6.10;87.30;;;;;;5133951;27;20043;-84
2021/05/03 03:51:21;;;;;;;5.60;2.45;;;6.10;87.40;;;;;;5134845;27;20050;-83
2021/05/03 03:53:46;;;;;;;4.10;2.17;;;6.10;87.40;;;;;;5133500;27;20062;-83
2021/05/03 03:56:13;;;;;;;5.20;2.88;;;6.10;87.40;;;;;;5134588;27;20402;-83
2021/05/03 03:58:40;;;;;;;5.28;2.25;;;6.10;87.50;;;;;;5133823;27;20490;-83
2021/05/03 04:01:09;;;;;;;4.50;2.50;;;6.10;87.40;;;;;;5129500;27;20046;-83
2021/05/03 04:03:35;;;;;;;3.95;2.20;;;6.10;87.40;;;;;;5115814;27;20075;-83
2021/05/03 04:06:13;;;;;;;6.57;3.67;;;6.10;87.20;;;;;;5114808;27;20101;-83
2021/05/03 04:08:52;;;;;;;5.80;3.42;;;6.10;87.60;;;;;;5112683;28;20076;-84
2021/05/03 04:26:48;;;;;;;6.30;4.30;;;6.20;88.40;;;;;;5133755;27;20047;-83
2021/05/03 04:29:14;;;;;;;7.95;5.53;;;6.20;88.50;;;;;;5133376;27;20047;-83
2021/05/03 04:31:40;;;;;;;9.38;6.38;;;6.20;88.70;;;;;;5133462;27;20498;-83
2021/05/03 04:34:05;;;;;;;6.25;3.65;;;6.20;88.80;;;;;;5133924;27;20402;-83
2021/05/03 04:36:31;;;;;;;5.72;3.30;;;6.20;88.80;;;;;;5132567;27;20150;-83
2021/05/03 04:38:56;;;;;;;5.85;3.42;;;6.20;88.50;;;;;;5133793;27;20051;-83
2021/05/03 04:41:22;;;;;;;6.45;4.22;;;6.20;88.20;;;;;;5133832;27;20443;-83
2021/05/03 04:43:48;;;;;;;7.25;4.00;;;6.20;88.30;;;;;;5129262;27;20118;-83
2021/05/03 04:46:16;;;;;;;6.60;4.38;;;6.20;88.50;;;;;;5113378;28;20039;-83
2021/05/03 04:48:43;;;;;;;9.02;5.40;;;6.20;88.30;;;;;;5112722;28;20050;-84
2021/05/03 04:51:08;;;;;;;8.32;4.90;;;6.20;88.30;;;;;;5112301;28;20043;-83
2021/05/03 04:53:34;;;;;;;8.85;5.50;;;6.20;88.40;;;;;;5112370;28;20501;-84
2021/05/03 04:56:00;;;;;;;7.15;4.55;;;6.30;88.60;;;;;;5132062;27;20053;-83
2021/05/03 04:58:26;;;;;;;12.05;8.43;;;6.30;88.50;;;;;;5132384;27;20062;-83
2021/05/03 05:00:52;;;;;;;11.00;7.45;;;6.30;88.70;;;;;;5131661;27;20559;-83
2021/05/03 05:03:17;;;;;;;14.02;8.18;;;6.20;88.80;;;;;;5132624;27;20051;-83
2021/05/03 05:05:46;;;;;;;15.20;8.45;;;6.30;89.10;;;;;;5119381;28;20096;-83
2021/05/03 05:08:11;;;;;;;11.77;8.02;;;6.30;89.30;;;;;;5132649;27;20046;-83
2021/05/03 05:10:37;;;;;;;11.25;7.75;;;6.30;89.30;;;;;;5132353;28;20043;-83
2021/05/03 05:13:03;;;;;;;9.82;6.80;;;6.30;89.40;;;;;;5132062;27;20410;-83
2021/05/03 05:15:29;;;;;;;13.68;8.20;;;6.30;89.50;;;;;;5132537;27;20043;-83
2021/05/03 05:17:55;;;;;;;9.55;6.82;;;6.30;89.70;;;;;;5132648;27;20115;-81
2021/05/03 05:20:21;;;;;;;11.90;8.30;;;6.30;89.50;;;;;;5126737;27;20468;-83
2021/05/03 05:22:47;;;;;;;9.98;6.28;;;6.30;89.50;;;;;;5130284;27;20066;-82
2021/05/03 05:25:13;;;;;;;12.10;8.75;;;6.30;89.50;;;;;;5132402;27;20066;-82
2021/05/03 05:27:39;;;;;;;11.73;8.38;;;6.30;89.70;;;;;;5132947;27;20051;-82
2021/05/03 05:30:06;;;;;;;11.48;8.25;;;6.30;89.90;;;;;;5132617;27;20070;-83
2021/05/03 05:32:32;;;;;;;11.02;8.30;;;6.30;89.90;;;;;;5131539;27;20093;-83
2021/05/03 05:34:58;;;;;;;14.70;10.13;;;6.30;89.90;;;;;;5132755;27;20051;-83
2021/05/03 05:37:24;;;;;;;11.35;9.02;;;6.30;90.00;;;;;;5127667;28;20147;-83
2021/05/03 05:39:49;;;;;;;13.10;9.18;;;6.30;90.40;;;;;;5128140;27;20043;-83
2021/05/03 05:42:15;;;;;;;9.35;7.45;;;6.30;90.00;;;;;;5119833;28;20074;-83
2021/05/03 05:44:41;;;;;;;13.45;9.38;;;6.30;90.00;;;;;;5122465;28;20055;-83
2021/05/03 05:47:06;;;;;;;12.95;9.05;;;6.30;90.00;;;;;;5132154;28;20490;-83
2021/05/03 05:49:32;;;;;;;10.40;8.10;;;6.30;90.00;;;;;;5132169;27;20043;-83
2021/05/03 05:51:58;;;;;;;13.82;9.40;;;6.40;90.00;;;;;;5132871;27;20039;-83
2021/05/03 05:54:24;;;;;;;16.50;10.18;;;6.40;90.00;;;;;;5132117;28;20070;-82
2021/05/03 05:56:50;;;;;;;13.45;9.15;;;6.40;90.00;;;;;;5128292;27;20079;-84
2021/05/03 05:59:16;;;;;;;12.20;9.45;;;6.40;90.00;;;;;;5131028;27;20047;-85
2021/05/03 06:01:42;;;;;;;14.40;10.90;;;6.50;90.00;;;;;;5126726;27;20047;-82
2021/05/03 06:04:07;;;;;;;13.18;9.55;;;6.50;90.00;;;;;;5149289;27;20043;-82
2021/05/03 06:06:33;;;;;;;12.82;9.70;;;6.50;90.00;;;;;;5142907;27;20055;-82
2021/05/03 06:09:00;;;;;;;14.85;10.90;;;6.60;90.00;;;;;;5145692;27;20134;-81
2021/05/03 06:11:26;;;;;;;14.20;10.20;;;6.60;90.00;;;;;;5132103;27;20044;-84
2021/05/03 06:13:51;;;;;;;15.68;10.98;;;6.60;90.00;;;;;;5136149;27;20043;-82
2021/05/03 06:16:18;;;;;;;13.07;8.88;;;6.60;90.00;;;;;;5139489;27;20485;-83
2021/05/03 06:18:43;;;;;;;14.13;9.95;;;6.60;90.00;;;;;;5145555;27;20054;-84
2021/05/03 06:21:09;;;;;;;13.35;10.02;;;6.70;90.00;;;;;;5136666;27;20565;-85
2021/05/03 06:23:34;;;;;;;20.08;13.13;;;6.70;90.00;;;;;;5150453;27;20043;-84
2021/05/03 06:26:00;;;;;;;14.82;12.10;;;6.70;90.00;;;;;;5139264;27;20410;-83
2021/05/03 06:28:25;;;;;;;16.00;12.15;;;6.70;90.00;;;;;;5149717;27;20071;-84
2021/05/03 06:30:58;;;;;;;12.63;9.57;;;6.70;89.90;;;;;;5131143;27;20059;-83
2021/05/03 06:33:24;;;;;;;18.15;13.88;;;6.80;89.80;;;;;;5143596;27;20107;-84
2021/05/03 06:35:51;;;;;;;15.20;11.07;;;6.80;89.80;;;;;;5137987;27;20594;-84
2021/05/03 06:38:17;;;;;;;16.80;12.50;;;6.80;89.80;;;;;;5151884;27;20054;-84
2021/05/03 06:40:43;;;;;;;17.90;12.85;;;6.80;89.80;;;;;;5131585;27;20047;-83
2021/05/03 06:43:09;;;;;;;19.25;13.23;;;6.80;89.80;;;;;;5130330;27;20051;-83
2021/05/03 06:45:34;;;;;;;17.30;13.73;;;6.90;89.80;;;;;;5133158;27;20379;-84
2021/05/03 06:48:05;;;;;;;16.73;12.77;;;6.90;89.80;;;;;;5152515;27;20042;-84
2021/05/03 06:50:31;;;;;;;18.23;13.93;;;6.90;89.80;;;;;;5139778;27;20096;-85
2021/05/03 06:52:56;;;;;;;20.38;15.52;;;6.90;89.90;;;;;;5145767;27;20071;-84
2021/05/03 06:55:22;;;;;;;26.95;18.90;;;6.90;90.00;;;;;;5145851;27;20398;-83
2021/05/03 06:57:48;;;;;;;24.45;17.63;;;7.00;90.10;;;;;;5134233;27;20055;-87
2021/05/03 07:00:15;;;;;;;23.77;17.05;;;7.00;90.10;;;;;;5149663;27;20114;-82
2021/05/03 07:02:42;;;;;;;26.15;19.35;;;7.00;90.20;;;;;;5134123;27;20051;-81
2021/05/03 07:05:09;;;;;;;24.55;18.17;;;7.10;90.30;;;;;;5146442;27;20043;-82
2021/05/03 07:07:34;;;;;;;25.98;20.40;;;7.10;90.30;;;;;;5138566;27;20067;-84
2021/05/03 07:10:00;;;;;;;28.15;19.73;;;7.20;90.30;;;;;;5152507;27;20085;-86
2021/05/03 07:12:26;;;;;;;28.10;22.17;;;7.20;90.70;;;;;;5140080;27;20133;-82
2021/05/03 07:14:53;;;;;;;27.83;20.08;;;7.30;90.50;;;;;;5145434;27;20143;-83
2021/05/03 07:17:19;;;;;;;30.27;23.30;;;7.30;90.50;;;;;;5133002;27;20047;-83
2021/05/03 07:19:45;;;;;;;30.15;22.90;;;7.40;90.50;;;;;;5132717;27;20437;-83
2021/05/03 07:22:12;;;;;;;34.95;26.27;;;7.40;90.50;;;;;;5151915;27;20051;-83
2021/05/03 07:24:39;;;;;;;27.17;21.63;;;7.50;90.60;;;;;;5140388;27;20042;-84
2021/05/03 07:27:07;;;;;;;31.55;23.92;;;7.50;90.60;;;;;;5134368;27;20035;-85
2021/05/03 07:29:33;;;;;;;35.00;25.92;;;7.50;90.60;;;;;;5125785;27;20050;-84
2021/05/03 07:31:58;;;;;;;38.33;27.60;;;7.60;90.70;;;;;;5126997;27;20051;-86
2021/05/03 07:37:02;;;;;;;33.65;26.52;;;7.70;90.70;;;;;;5138787;22;20047;-85
2021/05/03 07:39:27;;;;;;;33.95;27.83;;;7.70;90.70;;;;;;4980540;28;20065;-87
2021/05/03 07:41:53;;;;;;;35.83;25.80;;;7.80;90.80;;;;;;4975812;28;20482;-88
2021/05/03 07:44:18;;;;;;;31.63;22.67;;;7.90;90.80;;;;;;4980487;28;20046;-85
2021/05/03 07:46:45;;;;;;;34.08;27.30;;;8.00;90.70;;;;;;4968173;28;20047;-91
2021/05/03 07:49:10;;;;;;;35.70;28.75;;;8.00;90.60;;;;;;4978658;28;20497;-86
2021/05/03 07:51:36;;;;;;;33.60;25.63;;;8.10;90.70;;;;;;4976143;28;20078;-84
2021/05/03 07:54:03;;;;;;;33.40;25.63;;;8.20;90.60;;;;;;4973869;28;20057;-83
2021/05/03 07:56:31;;;;;;;34.25;26.73;;;8.30;90.40;;;;;;4975255;28;20050;-80
2021/05/03 07:58:57;;;;;;;36.78;27.48;;;8.30;90.40;;;;;;4989578;28;20097;-80
2021/05/03 08:01:23;;;;;;;36.30;28.00;;;8.40;90.30;;;;;;4977071;28;20043;-80
2021/05/03 08:03:49;;;;;;;30.17;25.20;;;8.50;90.30;;;;;;4973866;28;20061;-80
2021/05/03 08:06:15;;;;;;;33.13;24.88;;;8.50;90.20;;;;;;4989473;28;20141;-80
2021/05/03 08:08:43;;;;;;;30.80;24.88;;;8.60;90.20;;;;;;4974398;28;20060;-80
2021/05/03 08:11:09;;;;;;;35.58;26.05;;;8.70;90.20;;;;;;4968570;28;20050;-80
2021/05/03 08:13:35;;;;;;;30.38;24.67;;;8.70;90.10;;;;;;4972821;28;20047;-81
2021/05/03 08:16:03;;;;;;;33.75;26.17;;;8.80;90.10;;;;;;4972874;28;20051;-81
2021/05/03 08:18:30;;;;;;;28.17;22.35;;;8.90;90.10;;;;;;4969859;28;20476;-81
2021/05/03 08:20:57;;;;;;;29.10;22.42;;;9.00;89.80;;;;;;4973262;28;20074;-82
2021/05/03 08:23:26;;;;;;;30.40;23.17;;;9.10;89.50;;;;;;4972698;28;20130;-81
2021/05/03 08:25:54;;;;;;;30.92;23.20;;;9.30;89.10;;;;;;4970073;28;20058;-81
2021/05/03 08:28:20;;;;;;;30.50;24.13;;;9.30;89.10;;;;;;4972496;28;20047;-81
2021/05/03 08:30:47;;;;;;;29.15;22.27;;;9.40;88.90;;;;;;4977385;28;20125;-81
2021/05/03 08:33:14;;;;;;;29.42;22.55;;;9.50;88.50;;;;;;4985194;28;20450;-82
2021/05/03 08:35:40;;;;;;;32.00;22.92;;;9.60;88.30;;;;;;4984182;28;20062;-81
2021/05/03 08:38:05;;;;;;;34.38;25.20;;;9.70;87.80;;;;;;4979124;28;20474;-82
2021/05/03 08:40:32;;;;;;;33.05;24.60;;;9.70;87.70;;;;;;4971764;28;20529;-82
2021/05/03 08:43:02;;;;;;;35.38;25.05;;;9.80;87.70;;;;;;4978708;28;20050;-83
2021/05/03 08:45:29;;;;;;;31.33;23.80;;;9.80;87.50;;;;;;4983571;28;20045;-82
2021/05/03 08:50:44;;;;;;;33.03;25.08;;;9.90;87.50;;;;;;4976815;28;20046;-80
2021/05/03 08:53:12;;;;;;;33.63;26.30;;;10.00;87.70;;;;;;4985335;28;20501;-82
2021/05/03 08:55:38;;;;;;;31.45;25.17;;;10.00;87.40;;;;;;4975170;28;20070;-82
2021/05/03 08:58:03;;;;;;;31.95;26.08;;;10.10;86.90;;;;;;4973277;28;20088;-82
2021/05/03 09:00:29;;;;;;;32.55;26.33;;;10.10;86.60;;;;;;4988170;28;20054;-82
2021/05/03 09:02:56;;;;;;;36.72;27.77;;;10.10;86.70;;;;;;4973222;28;20114;-83
2021/05/03 09:05:22;;;;;;;33.53;26.10;;;10.10;86.60;;;;;;4981012;28;20039;-82
2021/05/03 09:07:50;;;;;;;32.38;26.83;;;10.10;86.50;;;;;;4977053;28;20043;-82
2021/05/03 09:10:18;;;;;;;34.00;28.08;;;10.10;86.30;;;;;;4972559;28;20066;-82
2021/05/03 09:12:45;;;;;;;36.33;27.85;;;10.10;86.20;;;;;;4972994;28;20436;-82
2021/05/03 09:15:11;;;;;;;36.50;28.80;;;10.10;86.40;;;;;;4970519;28;20062;-82
2021/05/03 09:17:39;;;;;;;36.05;28.10;;;10.10;86.10;;;;;;4973165;28;20488;-82
2021/05/03 09:20:16;;;;;;;35.55;27.10;;;10.10;86.00;;;;;;4987150;28;20453;-81
2021/05/03 09:22:52;;;;;;;33.78;27.88;;;10.10;85.90;;;;;;4971370;28;20109;-81
2021/05/03 09:25:23;;;;;;;38.63;29.08;;;10.10;85.70;;;;;;4971597;28;20050;-82
2021/05/03 09:28:02;;;;;;;38.40;29.02;;;10.10;85.80;;;;;;4971762;28;20046;-82
2021/05/03 09:30:45;;;;;;;36.63;29.23;;;10.10;85.70;;;;;;4971034;28;20074;-81
2021/05/03 09:33:13;;;;;;;38.92;30.67;;;10.10;85.70;;;;;;4979834;28;20081;-81
2021/05/03 09:36:09;;;;;;;36.25;29.90;;;10.10;85.80;;;;;;4986631;28;20053;-81
2021/05/03 09:38:42;;;;;;;37.28;29.90;;;10.10;85.30;;;;;;4975012;28;20062;-80
2021/05/03 09:41:21;;;;;;;37.20;30.25;;;10.10;85.40;;;;;;4984975;28;20125;-81
2021/05/03 09:43:54;;;;;;;36.35;29.73;;;10.10;85.40;;;;;;4983665;28;20186;-80
2021/05/03 09:46:39;;;;;;;36.13;30.27;;;10.10;85.20;;;;;;4989475;28;20074;-81
2021/05/03 09:49:09;;;;;;;39.13;30.02;;;10.10;85.20;;;;;;4965735;28;20054;-82
2021/05/03 09:51:42;;;;;;;41.60;32.22;;;10.10;85.40;;;;;;4986358;28;20053;-82
2021/05/03 09:54:26;;;;;;;42.05;33.00;;;10.10;85.50;;;;;;4981486;28;20078;-82
2021/05/03 09:57:01;;;;;;;;;;;10.20;85.70;;;;;;4964902;28;20053;-81
2021/05/03 09:59:38;;;;;;;42.58;34.25;;;10.20;85.80;;;;;;4986088;28;19965;-82
2021/05/03 10:02:37;;;;;;;39.13;32.58;;;10.20;85.70;;;;;;4975873;28;20070;-82
2021/05/03 10:05:18;;;;;;;38.40;31.70;;;10.30;85.60;;;;;;4977741;28;20038;-83
2021/05/03 10:07:52;;;;;;;;;;;10.30;85.70;;;;;;4990185;28;20088;-82
2021/05/03 10:10:20;;;;;;;40.17;33.63;;;10.30;85.80;;;;;;4978690;28;19929;-82
2021/05/03 10:12:46;;;;;;;41.47;33.05;;;10.40;86.10;;;;;;4963344;28;20302;-82
2021/05/03 10:15:14;;;;;;;42.38;33.00;;;10.40;86.40;;;;;;4988237;28;20230;-82
2021/05/03 10:17:42;;;;;;;45.10;35.53;;;10.50;86.80;;;;;;4985711;28;20089;-82
2021/05/03 10:20:10;;;;;;;44.38;36.17;;;10.50;87.20;;;;;;4985050;28;20056;-83
2021/05/03 10:22:36;;;;;;;40.08;34.70;;;10.60;87.70;;;;;;4977466;28;20051;-82
2021/05/03 10:25:07;;;;;;;40.88;34.13;;;10.60;88.10;;;;;;4988704;28;20093;-82
2021/05/03 10:27:37;;;;;;;41.25;34.72;;;10.70;88.10;;;;;;4985082;28;20046;-82
2021/05/03 10:30:10;;;;;;;40.25;32.67;;;10.80;88.00;;;;;;4980701;28;20055;-83
2021/05/03 10:32:37;;;;;;;39.08;32.30;;;10.80;87.90;;;;;;4991006;28;20418;-82
2021/05/03 10:35:07;;;;;;;40.25;31.63;;;10.90;87.60;;;;;;4978795;28;20417;-83
2021/05/03 10:37:41;;;;;;;39.65;30.45;;;11.00;86.60;;;;;;4984216;28;20055;-83
2021/05/03 10:40:47;;;;;;;39.72;30.98;;;11.00;86.20;;;;;;4983281;28;20054;-82
2021/05/03 10:43:15;;;;;;;39.45;29.95;;;11.10;86.70;;;;;;4969460;28;20038;-82
2021/05/03 10:45:52;;;;;;;34.40;29.13;;;11.20;86.60;;;;;;4981089;28;20059;-83
2021/05/03 10:48:28;;;;;;;36.78;29.27;;;11.30;86.00;;;;;;4981941;28;20046;-82
2021/05/03 10:50:54;;;;;;;33.92;28.27;;;11.30;85.30;;;;;;4964497;28;20058;-83
2021/05/03 10:53:29;;;;;;;30.08;23.90;;;11.40;85.10;;;;;;4987589;28;20042;-82
2021/05/03 10:55:59;;;;;;;32.03;22.92;;;11.50;84.80;;;;;;4981342;28;20094;-83
2021/05/03 10:58:25;;;;;;;24.27;18.50;;;11.50;84.30;;;;;;4990752;28;20356;-83
2021/05/03 11:01:03;;;;;;;26.55;19.10;;;11.50;83.20;;;;;;4978807;28;20402;-83
2021/05/03 11:03:57;;;;;;;22.23;18.00;;;11.60;83.20;;;;;;4985434;28;20047;-83
2021/05/03 11:06:37;;;;;;;;;;;11.70;82.50;;;;;;4988578;28;20062;-82
2021/05/03 11:09:25;;;;;;;28.13;20.73;;;11.70;82.20;;;;;;4989029;28;19922;-83
2021/05/03 11:11:51;;;;;;;22.75;15.57;;;11.80;82.30;;;;;;4987194;28;20082;-83
2021/05/03 11:14:19;;;;;;;20.98;14.73;;;11.90;81.80;;;;;;4978343;28;20047;-83
2021/05/03 11:16:55;;;;;;;22.55;15.68;;;12.00;81.30;;;;;;4991356;28;20120;-83
2021/05/03 11:19:49;;;;;;;20.05;16.38;;;12.10;80.10;;;;;;4982931;28;20109;-83
2021/05/03 11:22:19;;;;;;;24.38;17.10;;;12.20;79.10;;;;;;4978236;28;20055;-83
2021/05/03 11:25:01;;;;;;;22.10;16.15;;;12.20;79.00;;;;;;4990736;28;20501;-83
2021/05/03 11:30:31;;;;;;;22.30;18.27;;;12.30;78.10;;;;;;4977960;28;20178;-83
2021/05/03 11:33:02;;;;;;;19.23;15.05;;;12.30;78.90;;;;;;4989869;28;20047;-83
2021/05/03 11:35:36;;;;;;;16.45;9.32;;;12.40;78.50;;;;;;4976708;28;20050;-84
2021/05/03 11:38:19;;;;;;;16.73;11.55;;;12.40;76.00;;;;;;4980460;28;20105;-83
2021/05/03 11:43:49;;;;;;;16.02;11.68;;;12.40;76.50;;;;;;4984992;28;20556;-85
2021/05/03 11:46:30;;;;;;;16.98;11.27;;;12.50;74.80;;;;;;4989501;28;20450;-85
2021/05/03 11:48:58;;;;;;;16.88;13.57;;;12.50;75.10;;;;;;4963306;28;20050;-83
2021/05/03 11:51:24;;;;;;;18.17;12.60;;;12.60;75.10;;;;;;4965288;28;20046;-82
2021/05/03 11:53:50;;;;;;;15.77;11.30;;;12.60;75.20;;;;;;4981399;28;20043;-83
2021/05/03 11:56:24;;;;;;;13.63;9.05;;;12.60;73.20;;;;;;4975865;28;20070;-82
2021/05/03 11:58:55;;;;;;;16.85;9.48;;;12.60;73.20;;;;;;4975358;28;20046;-81
2021/05/03 12:01:23;;;;;;;11.40;8.27;;;12.50;73.70;;;;;;4982341;28;20042;-81
2021/05/03 12:03:52;;;;;;;10.52;7.93;;;12.30;74.50;;;;;;4980536;28;20458;-81
2021/05/03 12:06:42;;;;;;;12.65;8.88;;;12.20;75.20;;;;;;4989722;28;20047;-82
2021/05/03 12:09:10;;;;;;;12.23;7.63;;;12.20;76.60;;;;;;4967435;28;20070;-82
2021/05/03 12:11:37;;;;;;;10.45;7.80;;;12.10;77.40;;;;;;4982558;28;20414;-82
2021/05/03 12:14:05;;;;;;;8.80;6.38;;;12.00;77.60;;;;;;4987953;28;20057;-82
2021/05/03 12:16:37;;;;;;;14.18;10.38;;;12.00;77.40;;;;;;4977540;28;20126;-82
2021/05/03 12:19:10;;;;;;;15.57;11.27;;;12.00;77.90;;;;;;4976636;28;20050;-82
2021/05/03 12:21:36;;;;;;;11.85;9.88;;;12.00;77.80;;;;;;4967015;28;20047;-83
2021/05/03 12:24:34;;;;;;;13.95;10.18;;;12.00;77.60;;;;;;4975325;28;20106;-83
2021/05/03 12:27:00;;;;;;;12.10;9.48;;;11.90;77.40;;;;;;4977464;28;20049;-84
2021/05/03 12:29:28;;;;;;;13.80;10.00;;;11.90;77.60;;;;;;4983568;28;20078;-82
2021/05/03 12:31:55;;;;;;;13.52;10.65;;;11.80;78.40;;;;;;4979972;28;20093;-86
2021/05/03 12:34:23;;;;;;;12.82;9.73;;;11.80;79.70;;;;;;4974847;28;20054;-86
2021/05/03 12:37:07;;;;;;;12.48;9.00;;;11.80;79.90;;;;;;4985465;28;20043;-86
2021/05/03 12:39:33;;;;;;;;;;;11.90;79.30;;;;;;4983550;28;20082;-84
2021/05/03 12:42:16;;;;;;;12.55;8.80;;;11.80;78.00;;;;;;4987248;28;19921;-83
2021/05/03 12:44:53;;;;;;;12.88;8.98;;;11.70;78.30;;;;;;4977630;28;20039;-84
2021/05/03 12:47:37;;;;;;;11.43;8.35;;;11.70;79.00;;;;;;4977351;28;20051;-82
2021/05/03 12:50:14;;;;;;;10.98;7.93;;;11.70;77.70;;;;;;4987688;28;20057;-81
2021/05/03 12:52:56;;;;;;;12.88;8.70;;;11.70;77.50;;;;;;4976360;28;20054;-85
2021/05/03 12:55:51;;;;;;;9.35;7.15;;;11.70;78.10;;;;;;4976414;28;20057;-85
2021/05/03 12:58:25;;;;;;;11.65;8.10;;;11.80;78.30;;;;;;4974496;28;20078;-85
2021/05/03 13:03:56;;;;;;;9.40;6.75;;;11.80;78.30;;;;;;4981256;28;20453;-85
2021/05/03 13:24:24;;;;;;;9.50;5.75;;;11.90;76.20;;;;;;4975602;28;20049;-83
2021/05/03 13:29:17;;;;;;;9.35;6.28;;;11.90;77.20;;;;;;4986676;28;20043;-87
2021/05/03 13:31:45;;;;;;;8.73;5.85;;;11.90;77.40;;;;;;4979970;28;20046;-85
2021/05/03 13:34:12;;;;;;;9.05;5.70;;;11.90;77.90;;;;;;4974907;28;20043;-84
2021/05/03 13:36:40;;;;;;;9.43;6.45;;;11.90;77.50;;;;;;4978962;28;20133;-85
2021/05/03 13:39:08;;;;;;;10.30;6.90;;;12.00;78.00;;;;;;4975910;28;20055;-86
2021/05/03 13:41:41;;;;;;;9.55;6.60;;;12.00;77.80;;;;;;4985845;28;20504;-85
2021/05/03 13:44:09;;;;;;;11.95;6.47;;;12.10;76.70;;;;;;4979217;28;20057;-84